sensor_id;sensor_type;location;lat;lon;timestamp;pressure;altitude;pressure_sealevel;temperature;humidity
31346;BME280;21711;49.708;18.568;2022-09-01T00:00:12;97685.81;;;13.93;100.00
31346;BME280;21711;49.708;18.568;2022-09-01T00:02:41;97681.59;;;13.92;100.00
31346;BME280;21711;49.708;18.568;2022-09-01T00:05:09;97686.84;;;13.98;100.00
31346;BME280;21711;49.708;18.568;2022-09-01T00:07:36;97679.94;;;13.97;100.00
31346;BME280;21711;49.708;18.568;2022-09-01T00:10:06;97676.13;;;13.84;100.00
31346;BME280;21711;49.708;18.568;2022-09-01T00:12:34;97677.41;;;13.86;100.00
31346;BME280;21711;49.708;18.568;2022-09-01T00:15:06;97669.50;;;13.81;100.00
31346;BME280;21711;49.708;18.568;2022-09-01T00:17:34;97666.25;;;13.84;100.00
31346;BME280;21711;49.708;18.568;2022-09-01T00:20:04;97670.13;;;13.73;100.00
31346;BME280;21711;49.708;18.568;2022-09-01T00:22:31;97669.31;;;13.97;100.00
31346;BME280;21711;49.708;18.568;2022-09-01T00:25:00;97667.22;;;13.93;100.00
31346;BME280;21711;49.708;18.568;2022-09-01T00:27:28;97662.91;;;13.98;100.00
31346;BME280;21711;49.708;18.568;2022-09-01T00:29:58;97670.09;;;13.97;100.00
31346;BME280;21711;49.708;18.568;2022-09-01T00:32:27;97667.06;;;14.04;100.00
31346;BME280;21711;49.708;18.568;2022-09-01T00:34:55;97668.06;;;13.89;100.00
31346;BME280;21711;49.708;18.568;2022-09-01T00:37:22;97661.19;;;13.88;100.00
31346;BME280;21711;49.708;18.568;2022-09-01T00:39:50;97670.72;;;13.89;100.00
31346;BME280;21711;49.708;18.568;2022-09-01T00:42:17;97659.69;;;13.76;100.00
31346;BME280;21711;49.708;18.568;2022-09-01T00:44:45;97656.88;;;13.67;100.00
31346;BME280;21711;49.708;18.568;2022-09-01T00:47:13;97654.38;;;13.76;100.00
31346;BME280;21711;49.708;18.568;2022-09-01T00:49:47;97657.97;;;13.66;100.00
31346;BME280;21711;49.708;18.568;2022-09-01T00:52:34;97654.00;;;13.64;100.00
31346;BME280;21711;49.708;18.568;2022-09-01T00:55:13;97651.91;;;13.61;100.00
31346;BME280;21711;49.708;18.568;2022-09-01T00:57:43;97663.09;;;13.58;100.00
31346;BME280;21711;49.708;18.568;2022-09-01T01:00:21;97654.78;;;13.64;100.00
31346;BME280;21711;49.708;18.568;2022-09-01T01:02:50;97653.69;;;13.65;100.00
31346;BME280;21711;49.708;18.568;2022-09-01T01:05:26;97660.16;;;13.59;100.00
31346;BME280;21711;49.708;18.568;2022-09-01T01:07:57;97652.47;;;13.58;100.00
31346;BME280;21711;49.708;18.568;2022-09-01T01:10:26;97658.81;;;13.62;100.00
31346;BME280;21711;49.708;18.568;2022-09-01T01:12:59;97660.00;;;13.50;100.00
31346;BME280;21711;49.708;18.568;2022-09-01T01:15:30;97661.59;;;13.46;100.00
31346;BME280;21711;49.708;18.568;2022-09-01T01:17:58;97664.53;;;13.45;100.00
31346;BME280;21711;49.708;18.568;2022-09-01T01:20:27;97662.88;;;13.54;100.00
31346;BME280;21711;49.708;18.568;2022-09-01T01:23:39;97650.28;;;13.35;100.00
31346;BME280;21711;49.708;18.568;2022-09-01T01:26:10;97657.16;;;13.36;100.00
31346;BME280;21711;49.708;18.568;2022-09-01T01:28:41;97649.41;;;13.40;100.00
31346;BME280;21711;49.708;18.568;2022-09-01T01:31:15;97656.56;;;13.45;100.00
31346;BME280;21711;49.708;18.568;2022-09-01T01:33:51;97646.06;;;13.59;100.00
31346;BME280;21711;49.708;18.568;2022-09-01T01:36:24;97649.25;;;13.61;100.00
31346;BME280;21711;49.708;18.568;2022-09-01T01:39:15;97647.00;;;13.49;100.00
31346;BME280;21711;49.708;18.568;2022-09-01T01:41:45;97655.22;;;13.47;100.00
31346;BME280;21711;49.708;18.568;2022-09-01T01:44:20;97648.38;;;13.41;100.00
31346;BME280;21711;49.708;18.568;2022-09-01T01:46:51;97650.22;;;13.40;100.00
31346;BME280;21711;49.708;18.568;2022-09-01T01:49:23;97648.91;;;13.38;100.00
31346;BME280;21711;49.708;18.568;2022-09-01T01:51:53;97648.16;;;13.32;100.00
31346;BME280;21711;49.708;18.568;2022-09-01T01:54:27;97646.31;;;13.33;100.00
31346;BME280;21711;49.708;18.568;2022-09-01T01:56:59;97648.75;;;13.29;100.00
31346;BME280;21711;49.708;18.568;2022-09-01T01:59:27;97645.63;;;13.22;100.00
31346;BME280;21711;49.708;18.568;2022-09-01T02:01:56;97649.91;;;13.18;100.00
31346;BME280;21711;49.708;18.568;2022-09-01T02:04:24;97646.53;;;13.12;100.00
31346;BME280;21711;49.708;18.568;2022-09-01T02:06:53;97644.69;;;13.07;100.00
31346;BME280;21711;49.708;18.568;2022-09-01T02:09:22;97646.59;;;13.01;100.00
31346;BME280;21711;49.708;18.568;2022-09-01T02:11:51;97643.66;;;13.03;100.00
31346;BME280;21711;49.708;18.568;2022-09-01T02:14:24;97641.06;;;12.98;100.00
31346;BME280;21711;49.708;18.568;2022-09-01T02:16:52;97645.88;;;12.96;100.00
31346;BME280;21711;49.708;18.568;2022-09-01T02:19:22;97640.50;;;13.01;100.00
31346;BME280;21711;49.708;18.568;2022-09-01T02:21:49;97639.09;;;13.09;100.00
31346;BME280;21711;49.708;18.568;2022-09-01T02:24:22;97647.63;;;13.06;100.00
31346;BME280;21711;49.708;18.568;2022-09-01T02:26:50;97645.28;;;12.99;100.00
31346;BME280;21711;49.708;18.568;2022-09-01T02:29:21;97647.44;;;12.97;100.00
31346;BME280;21711;49.708;18.568;2022-09-01T02:31:52;97644.25;;;13.00;100.00
31346;BME280;21711;49.708;18.568;2022-09-01T02:34:21;97643.47;;;12.94;100.00
31346;BME280;21711;49.708;18.568;2022-09-01T02:36:53;97635.94;;;12.77;100.00
31346;BME280;21711;49.708;18.568;2022-09-01T02:39:29;97639.34;;;12.78;100.00
31346;BME280;21711;49.708;18.568;2022-09-01T02:42:00;97640.47;;;12.71;100.00
31346;BME280;21711;49.708;18.568;2022-09-01T02:44:29;97642.41;;;12.60;100.00
31346;BME280;21711;49.708;18.568;2022-09-01T02:46:59;97641.38;;;12.56;100.00
31346;BME280;21711;49.708;18.568;2022-09-01T02:49:28;97634.47;;;12.55;100.00
31346;BME280;21711;49.708;18.568;2022-09-01T02:51:58;97636.91;;;12.52;100.00
31346;BME280;21711;49.708;18.568;2022-09-01T02:54:30;97634.75;;;12.54;100.00
31346;BME280;21711;49.708;18.568;2022-09-01T02:57:00;97633.97;;;12.53;100.00
31346;BME280;21711;49.708;18.568;2022-09-01T02:59:28;97636.59;;;12.58;100.00
31346;BME280;21711;49.708;18.568;2022-09-01T03:01:59;97637.06;;;12.66;100.00
31346;BME280;21711;49.708;18.568;2022-09-01T03:04:27;97647.97;;;12.64;100.00
31346;BME280;21711;49.708;18.568;2022-09-01T03:07:04;97641.81;;;12.69;100.00
31346;BME280;21711;49.708;18.568;2022-09-01T03:09:31;97639.44;;;12.67;100.00
31346;BME280;21711;49.708;18.568;2022-09-01T03:12:02;97637.09;;;12.60;100.00
31346;BME280;21711;49.708;18.568;2022-09-01T03:14:29;97638.97;;;12.60;100.00
31346;BME280;21711;49.708;18.568;2022-09-01T03:16:58;97637.91;;;12.61;100.00
31346;BME280;21711;49.708;18.568;2022-09-01T03:19:26;97633.84;;;12.69;100.00
31346;BME280;21711;49.708;18.568;2022-09-01T03:21:58;97633.94;;;12.58;100.00
31346;BME280;21711;49.708;18.568;2022-09-01T03:24:29;97638.38;;;12.68;100.00
31346;BME280;21711;49.708;18.568;2022-09-01T03:26:58;97638.91;;;12.70;100.00
31346;BME280;21711;49.708;18.568;2022-09-01T03:29:26;97644.47;;;12.69;100.00
31346;BME280;21711;49.708;18.568;2022-09-01T03:31:54;97645.81;;;12.66;100.00
31346;BME280;21711;49.708;18.568;2022-09-01T03:34:21;97643.66;;;12.68;100.00
31346;BME280;21711;49.708;18.568;2022-09-01T03:36:52;97637.91;;;12.61;100.00
31346;BME280;21711;49.708;18.568;2022-09-01T03:39:27;97649.31;;;12.56;100.00
31346;BME280;21711;49.708;18.568;2022-09-01T03:41:56;97641.09;;;12.58;100.00
31346;BME280;21711;49.708;18.568;2022-09-01T03:44:24;97641.94;;;12.53;100.00
31346;BME280;21711;49.708;18.568;2022-09-01T03:46:52;97643.97;;;12.61;100.00
31346;BME280;21711;49.708;18.568;2022-09-01T03:49:20;97644.84;;;12.52;100.00
31346;BME280;21711;49.708;18.568;2022-09-01T03:51:55;97644.31;;;12.55;100.00
31346;BME280;21711;49.708;18.568;2022-09-01T03:54:26;97647.78;;;12.50;100.00
31346;BME280;21711;49.708;18.568;2022-09-01T03:56:56;97642.72;;;12.54;100.00
31346;BME280;21711;49.708;18.568;2022-09-01T03:59:26;97637.22;;;12.45;100.00
31346;BME280;21711;49.708;18.568;2022-09-01T04:01:56;97649.66;;;12.44;100.00
31346;BME280;21711;49.708;18.568;2022-09-01T04:04:25;97647.81;;;12.45;100.00
31346;BME280;21711;49.708;18.568;2022-09-01T04:06:53;97649.13;;;12.47;100.00
31346;BME280;21711;49.708;18.568;2022-09-01T04:09:20;97645.19;;;12.40;100.00
31346;BME280;21711;49.708;18.568;2022-09-01T04:11:47;97644.97;;;12.36;100.00
31346;BME280;21711;49.708;18.568;2022-09-01T04:14:17;97649.19;;;12.37;100.00
31346;BME280;21711;49.708;18.568;2022-09-01T04:16:47;97655.50;;;12.46;100.00
31346;BME280;21711;49.708;18.568;2022-09-01T04:19:36;97646.16;;;12.54;100.00
31346;BME280;21711;49.708;18.568;2022-09-01T04:22:08;97653.31;;;12.54;100.00
31346;BME280;21711;49.708;18.568;2022-09-01T04:24:41;97654.88;;;12.60;100.00
31346;BME280;21711;49.708;18.568;2022-09-01T04:27:12;97651.31;;;12.75;100.00
31346;BME280;21711;49.708;18.568;2022-09-01T04:29:41;97656.59;;;12.80;100.00
31346;BME280;21711;49.708;18.568;2022-09-01T04:32:09;97663.19;;;12.88;100.00
31346;BME280;21711;49.708;18.568;2022-09-01T04:34:48;97662.53;;;13.01;100.00
31346;BME280;21711;49.708;18.568;2022-09-01T04:37:19;97667.25;;;13.10;100.00
31346;BME280;21711;49.708;18.568;2022-09-01T04:39:56;97658.72;;;13.13;100.00
31346;BME280;21711;49.708;18.568;2022-09-01T04:42:28;97663.72;;;13.20;100.00
31346;BME280;21711;49.708;18.568;2022-09-01T04:45:00;97667.66;;;13.22;100.00
31346;BME280;21711;49.708;18.568;2022-09-01T04:47:40;97664.84;;;13.38;100.00
31346;BME280;21711;49.708;18.568;2022-09-01T04:50:16;97663.16;;;13.52;100.00
31346;BME280;21711;49.708;18.568;2022-09-01T04:53:04;97659.97;;;13.99;100.00
31346;BME280;21711;49.708;18.568;2022-09-01T04:55:39;97668.03;;;14.13;100.00
31346;BME280;21711;49.708;18.568;2022-09-01T04:58:13;97671.34;;;14.24;100.00
31346;BME280;21711;49.708;18.568;2022-09-01T05:00:46;97674.19;;;14.33;100.00
31346;BME280;21711;49.708;18.568;2022-09-01T05:03:17;97663.31;;;14.29;100.00
31346;BME280;21711;49.708;18.568;2022-09-01T05:05:55;97663.75;;;14.37;100.00
31346;BME280;21711;49.708;18.568;2022-09-01T05:08:26;97667.28;;;14.51;100.00
31346;BME280;21711;49.708;18.568;2022-09-01T05:11:03;97658.16;;;14.77;100.00
31346;BME280;21711;49.708;18.568;2022-09-01T05:13:39;97660.28;;;15.08;100.00
31346;BME280;21711;49.708;18.568;2022-09-01T05:16:11;97665.53;;;15.60;100.00
31346;BME280;21711;49.708;18.568;2022-09-01T05:18:47;97666.34;;;16.40;100.00
31346;BME280;21711;49.708;18.568;2022-09-01T05:21:19;97669.78;;;17.00;100.00
31346;BME280;21711;49.708;18.568;2022-09-01T05:23:49;97662.25;;;16.79;100.00
31346;BME280;21711;49.708;18.568;2022-09-01T05:26:21;97664.72;;;16.53;100.00
31346;BME280;21711;49.708;18.568;2022-09-01T05:28:55;97668.88;;;16.59;100.00
31346;BME280;21711;49.708;18.568;2022-09-01T05:31:24;97674.63;;;16.98;100.00
31346;BME280;21711;49.708;18.568;2022-09-01T05:33:54;97676.34;;;17.17;100.00
31346;BME280;21711;49.708;18.568;2022-09-01T05:36:24;97684.66;;;17.79;100.00
31346;BME280;21711;49.708;18.568;2022-09-01T05:38:54;97677.78;;;18.04;100.00
31346;BME280;21711;49.708;18.568;2022-09-01T05:41:23;97672.38;;;18.62;100.00
31346;BME280;21711;49.708;18.568;2022-09-01T05:43:51;97680.22;;;19.60;100.00
31346;BME280;21711;49.708;18.568;2022-09-01T05:46:26;97676.97;;;20.14;100.00
31346;BME280;21711;49.708;18.568;2022-09-01T05:48:56;97672.91;;;19.30;100.00
31346;BME280;21711;49.708;18.568;2022-09-01T05:51:26;97677.34;;;19.26;100.00
31346;BME280;21711;49.708;18.568;2022-09-01T05:54:18;97679.19;;;20.12;100.00
31346;BME280;21711;49.708;18.568;2022-09-01T05:56:48;97680.31;;;20.54;100.00
31346;BME280;21711;49.708;18.568;2022-09-01T05:59:20;97678.13;;;20.34;100.00
31346;BME280;21711;49.708;18.568;2022-09-01T06:01:57;97686.53;;;20.67;100.00
31346;BME280;21711;49.708;18.568;2022-09-01T06:04:25;97680.91;;;20.59;100.00
31346;BME280;21711;49.708;18.568;2022-09-01T06:07:00;97686.84;;;20.01;100.00
31346;BME280;21711;49.708;18.568;2022-09-01T06:09:43;97693.56;;;20.59;100.00
31346;BME280;21711;49.708;18.568;2022-09-01T06:12:14;97694.06;;;21.28;91.53
31346;BME280;21711;49.708;18.568;2022-09-01T06:14:53;97690.31;;;21.08;91.76
31346;BME280;21711;49.708;18.568;2022-09-01T06:17:24;97685.50;;;21.73;90.17
31346;BME280;21711;49.708;18.568;2022-09-01T06:19:56;97691.66;;;22.93;86.49
31346;BME280;21711;49.708;18.568;2022-09-01T06:22:27;97698.91;;;23.82;82.56
31346;BME280;21711;49.708;18.568;2022-09-01T06:24:56;97705.81;;;23.63;80.14
31346;BME280;21711;49.708;18.568;2022-09-01T06:27:34;97703.69;;;23.40;72.38
31346;BME280;21711;49.708;18.568;2022-09-01T06:30:09;97707.59;;;24.07;69.83
31346;BME280;21711;49.708;18.568;2022-09-01T06:32:57;97707.69;;;23.78;68.14
31346;BME280;21711;49.708;18.568;2022-09-01T06:35:24;97709.19;;;23.76;70.35
31346;BME280;21711;49.708;18.568;2022-09-01T06:37:56;97706.41;;;24.40;66.92
31346;BME280;21711;49.708;18.568;2022-09-01T06:41:02;97712.03;;;25.11;52.70
31346;BME280;21711;49.708;18.568;2022-09-01T06:43:31;97710.41;;;25.29;52.42
31346;BME280;21711;49.708;18.568;2022-09-01T06:46:01;97712.84;;;25.81;50.08
31346;BME280;21711;49.708;18.568;2022-09-01T06:48:29;97717.13;;;26.71;48.47
31346;BME280;21711;49.708;18.568;2022-09-01T06:51:03;97717.56;;;26.42;49.64
31346;BME280;21711;49.708;18.568;2022-09-01T06:53:53;97721.22;;;27.64;46.05
31346;BME280;21711;49.708;18.568;2022-09-01T06:56:31;97717.91;;;27.43;44.15
31346;BME280;21711;49.708;18.568;2022-09-01T06:59:11;97716.28;;;27.35;45.07
31346;BME280;21711;49.708;18.568;2022-09-01T07:01:45;97714.41;;;27.92;42.28
31346;BME280;21711;49.708;18.568;2022-09-01T07:04:53;97722.97;;;28.57;43.15
31346;BME280;21711;49.708;18.568;2022-09-01T07:07:22;97722.81;;;29.35;40.49
31346;BME280;21711;49.708;18.568;2022-09-01T07:10:45;97709.56;;;29.19;41.15
31346;BME280;21711;49.708;18.568;2022-09-01T07:13:34;97723.19;;;29.19;39.81
31346;BME280;21711;49.708;18.568;2022-09-01T07:16:05;97721.03;;;28.61;40.68
31346;BME280;21711;49.708;18.568;2022-09-01T07:18:56;97715.97;;;28.60;40.32
31346;BME280;21711;49.708;18.568;2022-09-01T07:21:29;97718.13;;;29.21;38.18
31346;BME280;21711;49.708;18.568;2022-09-01T07:24:19;97707.28;;;28.25;39.70
31346;BME280;21711;49.708;18.568;2022-09-01T07:27:06;97707.63;;;29.34;38.49
31346;BME280;21711;49.708;18.568;2022-09-01T07:29:37;97723.56;;;30.19;36.93
31346;BME280;21711;49.708;18.568;2022-09-01T07:32:07;97712.72;;;29.87;38.24
31346;BME280;21711;49.708;18.568;2022-09-01T07:34:56;97711.97;;;29.75;37.82
31346;BME280;21711;49.708;18.568;2022-09-01T07:37:27;97714.63;;;30.08;37.49
31346;BME280;21711;49.708;18.568;2022-09-01T07:40:18;97724.69;;;31.26;35.17
31346;BME280;21711;49.708;18.568;2022-09-01T07:43:40;97721.56;;;30.45;35.75
31346;BME280;21711;49.708;18.568;2022-09-01T07:46:31;97724.41;;;29.69;35.37
31346;BME280;21711;49.708;18.568;2022-09-01T07:49:14;97720.50;;;29.66;36.42
31346;BME280;21711;49.708;18.568;2022-09-01T07:52:03;97718.56;;;29.82;36.38
31346;BME280;21711;49.708;18.568;2022-09-01T07:54:31;97724.78;;;29.82;36.53
31346;BME280;21711;49.708;18.568;2022-09-01T07:57:02;97720.47;;;30.17;36.99
31346;BME280;21711;49.708;18.568;2022-09-01T07:59:32;97728.63;;;30.28;36.08
31346;BME280;21711;49.708;18.568;2022-09-01T08:02:09;97726.09;;;30.85;34.47
31346;BME280;21711;49.708;18.568;2022-09-01T08:04:37;97737.56;;;31.22;34.12
31346;BME280;21711;49.708;18.568;2022-09-01T08:07:08;97731.13;;;30.90;34.53
31346;BME280;21711;49.708;18.568;2022-09-01T08:09:42;97723.41;;;30.78;34.49
31346;BME280;21711;49.708;18.568;2022-09-01T08:12:11;97734.88;;;31.18;33.67
31346;BME280;21711;49.708;18.568;2022-09-01T08:14:45;97740.63;;;32.30;32.93
31346;BME280;21711;49.708;18.568;2022-09-01T08:17:13;97744.50;;;34.02;30.39
31346;BME280;21711;49.708;18.568;2022-09-01T08:20:08;97742.06;;;33.08;30.33
31346;BME280;21711;49.708;18.568;2022-09-01T08:23:04;97743.50;;;33.44;30.22
31346;BME280;21711;49.708;18.568;2022-09-01T08:25:36;97745.41;;;33.47;29.49
31346;BME280;21711;49.708;18.568;2022-09-01T08:28:05;97736.69;;;32.31;30.20
31346;BME280;21711;49.708;18.568;2022-09-01T08:30:33;97740.56;;;31.95;31.12
31346;BME280;21711;49.708;18.568;2022-09-01T08:33:02;97743.94;;;32.84;32.17
31346;BME280;21711;49.708;18.568;2022-09-01T08:35:42;97739.59;;;31.10;32.25
31346;BME280;21711;49.708;18.568;2022-09-01T08:38:10;97738.88;;;32.09;30.66
31346;BME280;21711;49.708;18.568;2022-09-01T08:40:40;97729.53;;;32.45;31.02
31346;BME280;21711;49.708;18.568;2022-09-01T08:43:51;97736.63;;;32.73;29.72
31346;BME280;21711;49.708;18.568;2022-09-01T08:46:35;97741.78;;;33.78;29.33
31346;BME280;21711;49.708;18.568;2022-09-01T08:49:25;97739.34;;;34.88;27.96
31346;BME280;21711;49.708;18.568;2022-09-01T08:52:41;97743.81;;;35.69;25.74
31346;BME280;21711;49.708;18.568;2022-09-01T08:55:30;97736.63;;;34.48;28.59
31346;BME280;21711;49.708;18.568;2022-09-01T08:58:00;97727.56;;;33.87;27.88
31346;BME280;21711;49.708;18.568;2022-09-01T09:01:00;97732.63;;;34.53;26.97
31346;BME280;21711;49.708;18.568;2022-09-01T09:04:08;97725.16;;;31.70;29.56
31346;BME280;21711;49.708;18.568;2022-09-01T09:07:02;97720.88;;;31.16;30.01
31346;BME280;21711;49.708;18.568;2022-09-01T09:09:45;97723.59;;;31.13;30.35
31346;BME280;21711;49.708;18.568;2022-09-01T09:16:20;97731.59;;;30.78;30.14
31346;BME280;21711;49.708;18.568;2022-09-01T09:19:08;97733.03;;;31.04;30.65
31346;BME280;21711;49.708;18.568;2022-09-01T09:21:41;97724.88;;;32.03;27.88
31346;BME280;21711;49.708;18.568;2022-09-01T09:27:00;97735.31;;;35.30;26.68
31346;BME280;21711;49.708;18.568;2022-09-01T09:29:28;97728.09;;;35.20;27.26
31346;BME280;21711;49.708;18.568;2022-09-01T09:32:08;97729.69;;;32.65;28.00
31346;BME280;21711;49.708;18.568;2022-09-01T09:34:56;97724.38;;;31.13;30.92
31346;BME280;21711;49.708;18.568;2022-09-01T09:37:39;97723.81;;;31.44;29.84
31346;BME280;21711;49.708;18.568;2022-09-01T09:40:11;97714.56;;;28.14;34.85
31346;BME280;21711;49.708;18.568;2022-09-01T09:45:29;97708.94;;;25.55;41.53
31346;BME280;21711;49.708;18.568;2022-09-01T09:48:27;97708.56;;;23.50;44.18
31346;BME280;21711;49.708;18.568;2022-09-01T09:50:55;97714.19;;;27.17;36.53
31346;BME280;21711;49.708;18.568;2022-09-01T09:53:30;97712.97;;;25.65;40.99
31346;BME280;21711;49.708;18.568;2022-09-01T09:58:38;97709.41;;;24.75;45.59
31346;BME280;21711;49.708;18.568;2022-09-01T10:04:00;97720.31;;;26.76;38.06
31346;BME280;21711;49.708;18.568;2022-09-01T10:06:40;97712.03;;;26.96;38.92
31346;BME280;21711;49.708;18.568;2022-09-01T10:09:34;97716.91;;;26.83;36.79
31346;BME280;21711;49.708;18.568;2022-09-01T10:12:02;97713.34;;;28.04;36.33
31346;BME280;21711;49.708;18.568;2022-09-01T10:15:08;97725.41;;;30.59;31.53
31346;BME280;21711;49.708;18.568;2022-09-01T10:17:42;97717.88;;;31.53;29.19
31346;BME280;21711;49.708;18.568;2022-09-01T10:20:23;97721.50;;;30.60;30.01
31346;BME280;21711;49.708;18.568;2022-09-01T10:22:52;97712.59;;;30.52;29.87
31346;BME280;21711;49.708;18.568;2022-09-01T10:25:27;97715.28;;;31.34;30.96
31346;BME280;21711;49.708;18.568;2022-09-01T10:28:08;97711.44;;;31.78;29.81
31346;BME280;21711;49.708;18.568;2022-09-01T10:30:40;97711.63;;;30.92;31.31
31346;BME280;21711;49.708;18.568;2022-09-01T10:33:10;97703.75;;;29.32;32.39
31346;BME280;21711;49.708;18.568;2022-09-01T10:35:51;97697.84;;;25.87;39.08
31346;BME280;21711;49.708;18.568;2022-09-01T10:38:25;97697.91;;;24.06;41.15
31346;BME280;21711;49.708;18.568;2022-09-01T10:40:56;97697.44;;;26.16;39.16
31346;BME280;21711;49.708;18.568;2022-09-01T10:43:47;97691.88;;;25.78;39.82
31346;BME280;21711;49.708;18.568;2022-09-01T10:48:55;97693.13;;;23.83;43.25
31346;BME280;21711;49.708;18.568;2022-09-01T10:57:38;97707.59;;;28.20;34.11
31346;BME280;21711;49.708;18.568;2022-09-01T11:06:06;97697.28;;;23.16;43.90
31346;BME280;21711;49.708;18.568;2022-09-01T11:08:44;97694.53;;;22.30;45.84
31346;BME280;21711;49.708;18.568;2022-09-01T11:14:24;97695.47;;;21.72;49.16
31346;BME280;21711;49.708;18.568;2022-09-01T11:17:35;97694.41;;;21.52;49.78
31346;BME280;21711;49.708;18.568;2022-09-01T11:20:45;97686.59;;;20.79;51.08
31346;BME280;21711;49.708;18.568;2022-09-01T11:23:29;97690.03;;;20.46;54.60
31346;BME280;21711;49.708;18.568;2022-09-01T11:26:43;97692.47;;;19.78;54.13
31346;BME280;21711;49.708;18.568;2022-09-01T11:28:49;97689.91;;;20.12;53.06
31346;BME280;21711;49.708;18.568;2022-09-01T11:31:31;97696.56;;;19.76;52.91
31346;BME280;21711;49.708;18.568;2022-09-01T11:34:28;97693.47;;;19.95;55.93
31346;BME280;21711;49.708;18.568;2022-09-01T11:36:58;97691.09;;;19.93;54.68
31346;BME280;21711;49.708;18.568;2022-09-01T11:39:40;97690.97;;;19.99;55.45
31346;BME280;21711;49.708;18.568;2022-09-01T11:42:32;97695.84;;;20.27;51.91
31346;BME280;21711;49.708;18.568;2022-09-01T11:45:24;97686.09;;;20.22;53.77
31346;BME280;21711;49.708;18.568;2022-09-01T11:48:02;97691.13;;;20.23;52.87
31346;BME280;21711;49.708;18.568;2022-09-01T11:50:38;97679.94;;;20.43;52.74
31346;BME280;21711;49.708;18.568;2022-09-01T11:53:21;97682.88;;;20.50;55.04
31346;BME280;21711;49.708;18.568;2022-09-01T11:55:52;97682.16;;;20.41;55.82
31346;BME280;21711;49.708;18.568;2022-09-01T12:03:43;97678.56;;;21.13;50.49
31346;BME280;21711;49.708;18.568;2022-09-01T12:06:18;97676.38;;;20.94;51.01
31346;BME280;21711;49.708;18.568;2022-09-01T12:08:56;97684.16;;;21.08;56.66
31346;BME280;21711;49.708;18.568;2022-09-01T12:11:28;97687.91;;;21.40;53.83
31346;BME280;21711;49.708;18.568;2022-09-01T12:14:21;97696.06;;;21.78;53.67
31346;BME280;21711;49.708;18.568;2022-09-01T12:17:03;97684.00;;;21.38;51.81
31346;BME280;21711;49.708;18.568;2022-09-01T12:19:34;97687.59;;;21.67;52.93
31346;BME280;21711;49.708;18.568;2022-09-01T12:22:17;97685.22;;;21.40;49.45
31346;BME280;21711;49.708;18.568;2022-09-01T12:24:53;97679.59;;;20.87;53.93
31346;BME280;21711;49.708;18.568;2022-09-01T12:27:21;97671.31;;;20.37;58.76
31346;BME280;21711;49.708;18.568;2022-09-01T12:29:51;97678.28;;;20.08;56.64
31346;BME280;21711;49.708;18.568;2022-09-01T12:32:19;97674.16;;;19.41;55.77
31346;BME280;21711;49.708;18.568;2022-09-01T12:35:04;97681.75;;;19.30;57.26
31346;BME280;21711;49.708;18.568;2022-09-01T12:37:41;97680.00;;;19.35;55.62
31346;BME280;21711;49.708;18.568;2022-09-01T12:40:30;97680.25;;;19.51;56.17
31346;BME280;21711;49.708;18.568;2022-09-01T12:42:59;97675.78;;;19.64;52.58
31346;BME280;21711;49.708;18.568;2022-09-01T12:45:45;97673.75;;;19.61;54.13
31346;BME280;21711;49.708;18.568;2022-09-01T12:48:39;97670.31;;;19.90;51.76
31346;BME280;21711;49.708;18.568;2022-09-01T12:51:24;97673.34;;;19.80;51.75
31346;BME280;21711;49.708;18.568;2022-09-01T12:53:58;97675.09;;;19.76;52.22
31346;BME280;21711;49.708;18.568;2022-09-01T12:56:35;97673.50;;;20.14;53.40
31346;BME280;21711;49.708;18.568;2022-09-01T12:59:18;97672.16;;;20.29;53.12
31346;BME280;21711;49.708;18.568;2022-09-01T13:02:34;97664.63;;;20.43;54.57
31346;BME280;21711;49.708;18.568;2022-09-01T13:05:31;97674.81;;;20.71;50.25
31346;BME280;21711;49.708;18.568;2022-09-01T13:08:16;97661.97;;;20.77;50.55
31346;BME280;21711;49.708;18.568;2022-09-01T13:10:51;97668.63;;;21.38;49.76
31346;BME280;21711;49.708;18.568;2022-09-01T13:13:22;97679.28;;;21.60;51.66
31346;BME280;21711;49.708;18.568;2022-09-01T13:15:56;97676.53;;;21.10;53.22
31346;BME280;21711;49.708;18.568;2022-09-01T13:18:27;97671.81;;;21.07;48.69
31346;BME280;21711;49.708;18.568;2022-09-01T13:20:56;97672.34;;;21.00;52.02
31346;BME280;21711;49.708;18.568;2022-09-01T13:23:25;97665.97;;;20.49;49.70
31346;BME280;21711;49.708;18.568;2022-09-01T13:25:52;97672.00;;;20.04;52.04
31346;BME280;21711;49.708;18.568;2022-09-01T13:28:20;97675.88;;;19.76;55.61
31346;BME280;21711;49.708;18.568;2022-09-01T13:31:03;97677.94;;;19.79;54.62
31346;BME280;21711;49.708;18.568;2022-09-01T13:33:52;97676.44;;;19.61;53.92
31346;BME280;21711;49.708;18.568;2022-09-01T13:36:37;97683.59;;;19.48;55.56
31346;BME280;21711;49.708;18.568;2022-09-01T13:39:10;97672.69;;;19.53;55.65
31346;BME280;21711;49.708;18.568;2022-09-01T13:41:37;97679.34;;;19.77;54.90
31346;BME280;21711;49.708;18.568;2022-09-01T13:44:05;97673.16;;;19.85;54.58
31346;BME280;21711;49.708;18.568;2022-09-01T13:46:35;97675.84;;;19.85;54.96
31346;BME280;21711;49.708;18.568;2022-09-01T13:49:23;97668.66;;;20.07;58.84
31346;BME280;21711;49.708;18.568;2022-09-01T13:52:11;97672.66;;;20.43;55.19
31346;BME280;21711;49.708;18.568;2022-09-01T13:54:39;97679.09;;;20.51;55.41
31346;BME280;21711;49.708;18.568;2022-09-01T13:57:06;97686.34;;;20.50;50.42
31346;BME280;21711;49.708;18.568;2022-09-01T13:59:33;97680.09;;;21.01;50.36
31346;BME280;21711;49.708;18.568;2022-09-01T14:02:01;97687.34;;;21.35;49.76
31346;BME280;21711;49.708;18.568;2022-09-01T14:04:28;97688.16;;;21.60;48.03
31346;BME280;21711;49.708;18.568;2022-09-01T14:06:56;97680.38;;;21.21;48.32